Observation data for Levelland on 07/20/2019      Previous  Date       Current Mesonet Observations  Soil Data  Daily Summary Page  Observations in Plain Language
KLD1 200500Z 17016G21KT 29/12 A2997 RMK A01 T02930120  RH  036%=      5-min Rain = 0
KLD1 200505Z 17015KT 29/12 A2997 RMK A01 T02920118  RH  035%=      5-min Rain = 0
KLD1 200510Z 17016KT 29/12 A2997 RMK A01 T02910117  RH  035%=      5-min Rain = 0
KLD1 200515Z 17015KT 29/12 A2997 RMK A01 T02900115  RH  035%=      5-min Rain = 0
KLD1 200520Z 17014G19KT 29/11 A2997 RMK A01 T02890114  RH  035%=      5-min Rain = 0
KLD1 200525Z 17014KT 29/11 A2997 RMK A01 T02870113  RH  035%=      5-min Rain = 0
KLD1 200530Z 17014G20KT 29/11 A2997 RMK A01 T02860112  RH  035%=      5-min Rain = 0
KLD1 200535Z 17015KT 29/11 A2997 RMK A01 T02860110  RH  035%=      5-min Rain = 0
KLD1 200540Z 17015G21KT 29/11 A2997 RMK A01 T02850109  RH  035%=      5-min Rain = 0
KLD1 200545Z 18014G19KT 28/11 A2997 RMK A01 T02840109  RH  035%=      5-min Rain = 0
KLD1 200550Z 18016G22KT 28/11 A2997 RMK A01 T02840108  RH  035%=      5-min Rain = 0
KLD1 200555Z 18016G21KT 28/11 A2997 RMK A01 T02830109  RH  035%=      5-min Rain = 0
KLD1 200600Z 18015KT 28/11 A2997 RMK A01 T02810109  RH  035%=      5-min Rain = 0
KLD1 200605Z 18014G20KT 28/11 A2997 RMK A01 T02800109  RH  036%=      5-min Rain = 0
KLD1 200610Z 18014G20KT 28/11 A2997 RMK A01 T02780109  RH  036%=      5-min Rain = 0
KLD1 200615Z 18015KT 28/11 A2997 RMK A01 T02780109  RH  036%=      5-min Rain = 0
KLD1 200620Z 18016G21KT 28/11 A2997 RMK A01 T02770110  RH  036%=      5-min Rain = 0
KLD1 200625Z 18015KT 28/11 A2997 RMK A01 T02760110  RH  037%=      5-min Rain = 0
KLD1 200630Z 18013G18KT 28/11 A2997 RMK A01 T02750111  RH  037%=      5-min Rain = 0
KLD1 200635Z 18014G20KT 27/11 A2997 RMK A01 T02730112  RH  038%=      5-min Rain = 0
KLD1 200640Z 18015G20KT 27/11 A2997 RMK A01 T02730113  RH  038%=      5-min Rain = 0
KLD1 200645Z 18015G20KT 27/11 A2997 RMK A01 T02710114  RH  039%=      5-min Rain = 0
KLD1 200650Z 18015G20KT 27/12 A2997 RMK A01 T02710115  RH  039%=      5-min Rain = 0
KLD1 200655Z 18015G21KT 27/12 A2997 RMK A01 T02700116  RH  040%=      5-min Rain = 0
KLD1 200700Z 18014G19KT 27/12 A2997 RMK A01 T02690117  RH  040%=      5-min Rain = 0
KLD1 200705Z 18014G21KT 27/12 A2997 RMK A01 T02680118  RH  041%=      5-min Rain = 0
KLD1 200710Z 18013G19KT 27/12 A2997 RMK A01 T02660119  RH  041%=      5-min Rain = 0
KLD1 200715Z 18014G20KT 27/12 A2997 RMK A01 T02660120  RH  042%=      5-min Rain = 0
KLD1 200720Z 18012G17KT 27/12 A2997 RMK A01 T02650120  RH  042%=      5-min Rain = 0
KLD1 200725Z 18014G19KT 26/12 A2997 RMK A01 T02640121  RH  043%=      5-min Rain = 0
KLD1 200730Z 18014G21KT 27/12 A2997 RMK A01 T02650122  RH  043%=      5-min Rain = 0
KLD1 200735Z 18014KT 26/12 A2997 RMK A01 T02640122  RH  043%=      5-min Rain = 0
KLD1 200740Z 18013G19KT 26/12 A2997 RMK A01 T02630122  RH  043%=      5-min Rain = 0
KLD1 200745Z 18013KT 26/12 A2997 RMK A01 T02610122  RH  044%=      5-min Rain = 0
KLD1 200750Z 18012KT 26/12 A2997 RMK A01 T02610123  RH  044%=      5-min Rain = 0
KLD1 200755Z 18013KT 26/12 A2997 RMK A01 T02590123  RH  044%=      5-min Rain = 0
KLD1 200800Z 18012KT 26/12 A2997 RMK A01 T02590123  RH  044%=      5-min Rain = 0
KLD1 200805Z 18011G16KT 26/12 A2997 RMK A01 T02580123  RH  045%=      5-min Rain = 0
KLD1 200810Z 18012KT 26/12 A2997 RMK A01 T02570123  RH  045%=      5-min Rain = 0
KLD1 200815Z 18011KT 26/12 A2997 RMK A01 T02560124  RH  045%=      5-min Rain = 0
KLD1 200820Z 18010KT 25/12 A2997 RMK A01 T02540124  RH  046%=      5-min Rain = 0
KLD1 200825Z 18010KT 25/12 A2997 RMK A01 T02530124  RH  046%=      5-min Rain = 0
KLD1 200830Z 18011KT 25/12 A2996 RMK A01 T02530124  RH  047%=      5-min Rain = 0
KLD1 200835Z 18010KT 25/13 A2996 RMK A01 T02520125  RH  047%=      5-min Rain = 0
KLD1 200840Z 18011KT 25/13 A2996 RMK A01 T02510125  RH  047%=      5-min Rain = 0
KLD1 200845Z 18010KT 25/13 A2996 RMK A01 T02500125  RH  047%=      5-min Rain = 0
KLD1 200850Z 18010KT 25/13 A2996 RMK A01 T02490125  RH  048%=      5-min Rain = 0
KLD1 200855Z 18011KT 25/13 A2996 RMK A01 T02480125  RH  048%=      5-min Rain = 0
KLD1 200900Z 18010KT 25/13 A2996 RMK A01 T02480125  RH  048%=      5-min Rain = 0
KLD1 200905Z 17010G15KT 25/13 A2996 RMK A01 T02470125  RH  048%=      5-min Rain = 0
KLD1 200910Z 17010KT 25/13 A2996 RMK A01 T02470126  RH  049%=      5-min Rain = 0
KLD1 200915Z 17009KT 25/13 A2996 RMK A01 T02460126  RH  049%=      5-min Rain = 0
KLD1 200920Z 18010KT 24/13 A2996 RMK A01 T02440125  RH  049%=      5-min Rain = 0
KLD1 200925Z 18009KT 24/13 A2996 RMK A01 T02440125  RH  049%=      5-min Rain = 0
KLD1 200930Z 18010KT 24/13 A2996 RMK A01 T02430126  RH  050%=      5-min Rain = 0
KLD1 200935Z 18009KT 24/13 A2996 RMK A01 T02420126  RH  050%=      5-min Rain = 0
KLD1 200940Z 18008KT 24/13 A2996 RMK A01 T02400126  RH  051%=      5-min Rain = 0
KLD1 200945Z 17009KT 24/13 A2996 RMK A01 T02390126  RH  051%=      5-min Rain = 0
KLD1 200950Z 18008KT 24/13 A2996 RMK A01 T02380126  RH  051%=      5-min Rain = 0
KLD1 200955Z 18008KT 24/13 A2997 RMK A01 T02370127  RH  052%=      5-min Rain = 0
KLD1 201000Z 19008KT 24/13 A2997 RMK A01 T02360127  RH  052%=      5-min Rain = 0
KLD1 201005Z 18008KT 24/13 A2997 RMK A01 T02350127  RH  053%=      5-min Rain = 0
KLD1 201010Z 18008KT 23/13 A2996 RMK A01 T02310127  RH  054%=      5-min Rain = 0
KLD1 201015Z 18008KT 23/13 A2996 RMK A01 T02300127  RH  054%=      5-min Rain = 0
KLD1 201020Z 18008KT 23/13 A2996 RMK A01 T02290127  RH  055%=      5-min Rain = 0
KLD1 201025Z 18009KT 23/13 A2996 RMK A01 T02290127  RH  055%=      5-min Rain = 0
KLD1 201030Z 17010KT 23/13 A2996 RMK A01 T02290128  RH  055%=      5-min Rain = 0
KLD1 201035Z 17010KT 23/13 A2996 RMK A01 T02290128  RH  055%=      5-min Rain = 0
KLD1 201040Z 17010KT 23/13 A2996 RMK A01 T02290128  RH  055%=      5-min Rain = 0
KLD1 201045Z 18010KT 23/13 A2996 RMK A01 T02280128  RH  055%=      5-min Rain = 0
KLD1 201050Z 17010KT 23/13 A2996 RMK A01 T02280128  RH  056%=      5-min Rain = 0
KLD1 201055Z 17010KT 23/13 A2996 RMK A01 T02270128  RH  056%=      5-min Rain = 0
KLD1 201100Z 17009KT 23/13 A2996 RMK A01 T02260128  RH  056%=      5-min Rain = 0
KLD1 201105Z 18008KT 22/13 A2997 RMK A01 T02240128  RH  057%=      5-min Rain = 0
KLD1 201110Z 17009KT 22/13 A2997 RMK A01 T02230128  RH  057%=      5-min Rain = 0
KLD1 201115Z 17011KT 22/13 A2996 RMK A01 T02240129  RH  057%=      5-min Rain = 0
KLD1 201120Z 17011KT 23/13 A2996 RMK A01 T02260129  RH  056%=      5-min Rain = 0
KLD1 201125Z 17010KT 23/13 A2996 RMK A01 T02250130  RH  057%=      5-min Rain = 0
KLD1 201130Z 17010KT 22/13 A2996 RMK A01 T02230130  RH  058%=      5-min Rain = 0
KLD1 201135Z 17011KT 22/13 A2996 RMK A01 T02230130  RH  058%=      5-min Rain = 0
KLD1 201140Z 17011KT 22/13 A2996 RMK A01 T02230131  RH  058%=      5-min Rain = 0
KLD1 201145Z 17011KT 22/13 A2996 RMK A01 T02230131  RH  058%=      5-min Rain = 0
KLD1 201150Z 17011G16KT 23/13 A2996 RMK A01 T02250132  RH  058%=      5-min Rain = 0
KLD1 201155Z 18011KT 22/13 A2997 RMK A01 T02240132  RH  058%=      5-min Rain = 0
KLD1 201200Z 18011KT 22/13 A2997 RMK A01 T02230132  RH  059%=      5-min Rain = 0
KLD1 201205Z 18010KT 22/13 A2997 RMK A01 T02220133  RH  059%=      5-min Rain = 0
KLD1 201210Z 17011KT 22/13 A2997 RMK A01 T02220133  RH  059%=      5-min Rain = 0
KLD1 201215Z 18011KT 22/13 A2997 RMK A01 T02220134  RH  060%=      5-min Rain = 0
KLD1 201220Z 18011KT 22/13 A2997 RMK A01 T02230134  RH  059%=      5-min Rain = 0
KLD1 201225Z 18011KT 22/14 A2997 RMK A01 T02240135  RH  059%=      5-min Rain = 0
KLD1 201230Z 18010KT 22/14 A2997 RMK A01 T02240136  RH  060%=      5-min Rain = 0
KLD1 201235Z 18010KT 22/14 A2997 RMK A01 T02240137  RH  060%=      5-min Rain = 0
KLD1 201240Z 18010KT 23/14 A2997 RMK A01 T02250137  RH  060%=      5-min Rain = 0
KLD1 201245Z 18011KT 23/14 A2997 RMK A01 T02260138  RH  060%=      5-min Rain = 0
KLD1 201250Z 18011KT 23/14 A2997 RMK A01 T02270139  RH  060%=      5-min Rain = 0
KLD1 201255Z 18010G15KT 23/14 A2997 RMK A01 T02290139  RH  059%=      5-min Rain = 0
KLD1 201300Z 17010KT 23/14 A2997 RMK A01 T02300140  RH  059%=      5-min Rain = 0
KLD1 201305Z 18011KT 23/14 A2997 RMK A01 T02320141  RH  059%=      5-min Rain = 0
KLD1 201310Z 18011KT 23/14 A2997 RMK A01 T02340142  RH  059%=      5-min Rain = 0
KLD1 201315Z 17012G17KT 24/14 A2997 RMK A01 T02360142  RH  058%=      5-min Rain = 0
KLD1 201320Z 17011KT 24/14 A2997 RMK A01 T02400143  RH  057%=      5-min Rain = 0
KLD1 201325Z 17013G18KT 24/14 A2997 RMK A01 T02420144  RH  056%=      5-min Rain = 0
KLD1 201330Z 18014KT 24/14 A2997 RMK A01 T02430143  RH  056%=      5-min Rain = 0
KLD1 201335Z 18013G20KT 25/14 A2997 RMK A01 T02450144  RH  056%=      5-min Rain = 0
KLD1 201340Z 18013G19KT 25/15 A2997 RMK A01 T02460145  RH  056%=      5-min Rain = 0
KLD1 201345Z 18012G17KT 25/15 A2997 RMK A01 T02480146  RH  055%=      5-min Rain = 0
KLD1 201350Z 18013KT 25/15 A2997 RMK A01 T02500146  RH  055%=      5-min Rain = 0
KLD1 201355Z 18014KT 25/15 A2997 RMK A01 T02520147  RH  054%=      5-min Rain = 0
KLD1 201400Z 18015G21KT 25/15 A2998 RMK A01 T02530147  RH  054%=      5-min Rain = 0
KLD1 201405Z 18015G20KT 26/15 A2998 RMK A01 T02560148  RH  054%=      5-min Rain = 0
KLD1 201410Z 19017G22KT 26/15 A2998 RMK A01 T02570148  RH  053%=      5-min Rain = 0
KLD1 201415Z 18018G23KT 26/15 A2998 RMK A01 T02580147  RH  053%=      5-min Rain = 0
KLD1 201420Z 18016KT 26/15 A2998 RMK A01 T02600149  RH  053%=      5-min Rain = 0
KLD1 201425Z 18017G22KT 26/15 A2997 RMK A01 T02610149  RH  052%=      5-min Rain = 0
KLD1 201430Z 18017G22KT 26/15 A2997 RMK A01 T02630149  RH  052%=      5-min Rain = 0
KLD1 201435Z 18015G20KT 27/15 A2997 RMK A01 T02660151  RH  051%=      5-min Rain = 0
KLD1 201440Z 18017G22KT 27/15 A2997 RMK A01 T02650150  RH  051%=      5-min Rain = 0
KLD1 201445Z 18016G22KT 27/15 A2997 RMK A01 T02690150  RH  050%=      5-min Rain = 0
KLD1 201450Z 19014G19KT 27/15 A2997 RMK A01 T02740152  RH  050%=      5-min Rain = 0
KLD1 201455Z 18016G21KT 28/15 A2997 RMK A01 T02750152  RH  049%=      5-min Rain = 0
KLD1 201500Z 18016KT 28/15 A2997 RMK A01 T02750151  RH  049%=      5-min Rain = 0
KLD1 201505Z 18014G19KT 28/15 A2997 RMK A01 T02770152  RH  049%=      5-min Rain = 0
KLD1 201510Z 18014G20KT 28/15 A2997 RMK A01 T02790153  RH  048%=      5-min Rain = 0
KLD1 201515Z 19016G22KT 28/15 A2997 RMK A01 T02800152  RH  048%=      5-min Rain = 0
KLD1 201520Z 18015KT 28/15 A2997 RMK A01 T02810153  RH  048%=      5-min Rain = 0
KLD1 201525Z 19015G20KT 28/15 A2997 RMK A01 T02820153  RH  047%=      5-min Rain = 0
KLD1 201530Z 18014KT 29/16 A2997 RMK A01 T02870155  RH  047%=      5-min Rain = 0
KLD1 201535Z 19015KT 29/15 A2998 RMK A01 T02870152  RH  046%=      5-min Rain = 0
KLD1 201540Z 19012G17KT 29/15 A2998 RMK A01 T02900154  RH  046%=      5-min Rain = 0
KLD1 201545Z 19012G18KT 29/16 A2997 RMK A01 T02940155  RH  045%=      5-min Rain = 0
KLD1 201550Z 20013KT 29/15 A2997 RMK A01 T02940153  RH  044%=      5-min Rain = 0
KLD1 201555Z 20012G17KT 30/16 A2997 RMK A01 T02950155  RH  045%=      5-min Rain = 0
KLD1 201600Z 19012G17KT 30/16 A2997 RMK A01 T02980156  RH  044%=      5-min Rain = 0
KLD1 201605Z 20011KT 30/16 A2997 RMK A01 T03000156  RH  044%=      5-min Rain = 0
KLD1 201610Z 20011G17KT 31/16 A2997 RMK A01 T03050155  RH  042%=      5-min Rain = 0
KLD1 201615Z 20012KT 31/16 A2997 RMK A01 T03070155  RH  042%=      5-min Rain = 0
KLD1 201620Z 19010KT 31/16 A2997 RMK A01 T03070156  RH  042%=      5-min Rain = 0
KLD1 201625Z 19012G17KT 31/16 A2997 RMK A01 T03080156  RH  042%=      5-min Rain = 0
KLD1 201630Z 19010G15KT 31/16 A2997 RMK A01 T03110157  RH  041%=      5-min Rain = 0
KLD1 201635Z 19012G17KT 31/16 A2997 RMK A01 T03140155  RH  040%=      5-min Rain = 0
KLD1 201640Z 20011KT 32/16 A2997 RMK A01 T03160155  RH  040%=      5-min Rain = 0
KLD1 201645Z 20010KT 32/16 A2997 RMK A01 T03180156  RH  039%=      5-min Rain = 0
KLD1 201650Z 19012KT 32/16 A2997 RMK A01 T03200156  RH  039%=      5-min Rain = 0
KLD1 201655Z 20010KT 32/15 A2997 RMK A01 T03220154  RH  038%=      5-min Rain = 0
KLD1 201700Z 19011KT 32/16 A2997 RMK A01 T03230155  RH  038%=      5-min Rain = 0
KLD1 201705Z 19010KT 33/16 A2997 RMK A01 T03260156  RH  038%=      5-min Rain = 0
KLD1 201710Z 19010G19KT 33/16 A2997 RMK A01 T03270156  RH  037%=      5-min Rain = 0
KLD1 201715Z 19009G15KT 33/16 A2997 RMK A01 T03290155  RH  037%=      5-min Rain = 0
KLD1 201720Z 20012KT 33/15 A2996 RMK A01 T03330154  RH  036%=      5-min Rain = 0
KLD1 201725Z 19011G16KT 34/15 A2996 RMK A01 T03350151  RH  035%=      5-min Rain = 0
KLD1 201730Z 19009KT 34/15 A2997 RMK A01 T03360151  RH  034%=      5-min Rain = 0
KLD1 201735Z 19009KT 34/15 A2997 RMK A01 T03390150  RH  034%=      5-min Rain = 0
KLD1 201740Z 21009G14KT 34/15 A2997 RMK A01 T03420148  RH  033%=      5-min Rain = 0
KLD1 201745Z 19008G13KT 34/15 A2997 RMK A01 T03420150  RH  033%=      5-min Rain = 0
KLD1 201750Z 19007KT 34/15 A2997 RMK A01 T03430149  RH  033%=      5-min Rain = 0
KLD1 201755Z 19010KT 35/15 A2997 RMK A01 T03450150  RH  033%=      5-min Rain = 0
KLD1 201800Z 18007G20KT 35/15 A2996 RMK A01 T03470147  RH  032%=      5-min Rain = 0
KLD1 201805Z 19010G16KT 35/15 A2996 RMK A01 T03480148  RH  032%=      5-min Rain = 0
KLD1 201810Z 20008KT 35/15 A2996 RMK A01 T03480148  RH  032%=      5-min Rain = 0
KLD1 201815Z 19008KT 35/15 A2996 RMK A01 T03520146  RH  031%=      5-min Rain = 0
KLD1 201820Z 18007G12KT 35/15 A2996 RMK A01 T03520147  RH  031%=      5-min Rain = 0
KLD1 201825Z 21009KT 35/15 A2995 RMK A01 T03530147  RH  031%=      5-min Rain = 0
KLD1 201830Z 18008G13KT 36/15 A2995 RMK A01 T03560148  RH  030%=      5-min Rain = 0
KLD1 201835Z 17008G14KT 36/15 A2995 RMK A01 T03570145  RH  030%=      5-min Rain = 0
KLD1 201840Z 18009G14KT 36/15 A2995 RMK A01 T03620145  RH  029%=      5-min Rain = 0
KLD1 201845Z 18009G17KT 36/14 A2995 RMK A01 T03610144  RH  029%=      5-min Rain = 0
KLD1 201850Z 17009KT 36/15 A2995 RMK A01 T03590145  RH  029%=      5-min Rain = 0
KLD1 201855Z 19008G15KT 36/15 A2995 RMK A01 T03610145  RH  029%=      5-min Rain = 0
KLD1 201900Z 17010G15KT 37/14 A2994 RMK A01 T03660144  RH  028%=      5-min Rain = 0
KLD1 201905Z 17011G16KT 37/14 A2994 RMK A01 T03650144  RH  028%=      5-min Rain = 0
KLD1 201910Z 17008G18KT 36/14 A2994 RMK A01 T03640141  RH  028%=      5-min Rain = 0
KLD1 201915Z 17008G13KT 37/14 A2994 RMK A01 T03700141  RH  027%=      5-min Rain = 0
KLD1 201920Z 18005G11KT 37/14 A2994 RMK A01 T03680141  RH  027%=      5-min Rain = 0
KLD1 201925Z 19010G16KT 37/14 A2994 RMK A01 T03690141  RH  027%=      5-min Rain = 0
KLD1 201930Z 18009G14KT 37/14 A2993 RMK A01 T03720141  RH  026%=      5-min Rain = 0
KLD1 201935Z 16011G18KT 37/14 A2993 RMK A01 T03720141  RH  026%=      5-min Rain = 0
KLD1 201940Z 15009G17KT 37/14 A2993 RMK A01 T03740143  RH  026%=      5-min Rain = 0
KLD1 201945Z 18010G16KT 38/14 A2993 RMK A01 T03770138  RH  025%=      5-min Rain = 0
KLD1 201950Z 18006G12KT 37/13 A2993 RMK A01 T03740132  RH  025%=      5-min Rain = 0
KLD1 201955Z 19009G15KT 38/14 A2992 RMK A01 T03770135  RH  025%=      5-min Rain = 0
KLD1 202000Z 18009G15KT 38/14 A2992 RMK A01 T03750135  RH  025%=      5-min Rain = 0
KLD1 202005Z 18006G11KT 37/13 A2992 RMK A01 T03740130  RH  024%=      5-min Rain = 0
KLD1 202010Z 14011G17KT 38/14 A2992 RMK A01 T03800136  RH  025%=      5-min Rain = 0
KLD1 202015Z 14009G14KT 38/13 A2992 RMK A01 T03800133  RH  024%=      5-min Rain = 0
KLD1 202020Z 16009KT 38/13 A2991 RMK A01 T03800134  RH  024%=      5-min Rain = 0
KLD1 202025Z 17012G17KT 38/13 A2991 RMK A01 T03830134  RH  024%=      5-min Rain = 0
KLD1 202030Z 15010G15KT 38/13 A2991 RMK A01 T03810130  RH  023%=      5-min Rain = 0
KLD1 202035Z 13009KT 37/13 A2991 RMK A01 T03740126  RH  024%=      5-min Rain = 0
KLD1 202040Z 14010KT 38/13 A2991 RMK A01 T03770126  RH  023%=      5-min Rain = 0
KLD1 202045Z 16011G16KT 38/13 A2991 RMK A01 T03790128  RH  023%=      5-min Rain = 0
KLD1 202050Z 15010G15KT 38/13 A2991 RMK A01 T03780129  RH  024%=      5-min Rain = 0
KLD1 202055Z 14012G19KT 38/13 A2991 RMK A01 T03820130  RH  023%=      5-min Rain = 0
KLD1 202100Z 17012G17KT 38/13 A2991 RMK A01 T03810126  RH  023%=      5-min Rain = 0
KLD1 202105Z 14011G18KT 38/13 A2991 RMK A01 T03750125  RH  023%=      5-min Rain = 0
KLD1 202110Z 16009G14KT 38/13 A2991 RMK A01 T03770130  RH  024%=      5-min Rain = 0
KLD1 202115Z 14011KT 38/13 A299 RMK A01 T03810130  RH  023%=      5-min Rain = 0
KLD1 202120Z 15012G19KT 38/13 A299 RMK A01 T03820132  RH  024%=      5-min Rain = 0
KLD1 202125Z 15011G18KT 38/13 A299 RMK A01 T03810128  RH  023%=      5-min Rain = 0
KLD1 202130Z 18012G17KT 37/13 A299 RMK A01 T03740126  RH  024%=      5-min Rain = 0
KLD1 202135Z 14009KT 37/12 A299 RMK A01 T03710124  RH  024%=      5-min Rain = 0
KLD1 202140Z 13012KT 38/12 A2989 RMK A01 T03770124  RH  023%=      5-min Rain = 0
KLD1 202145Z 15011G16KT 38/13 A2989 RMK A01 T03760126  RH  023%=      5-min Rain = 0
KLD1 202150Z 15013KT 38/13 A2989 RMK A01 T03750127  RH  024%=      5-min Rain = 0
KLD1 202155Z 14011G17KT 38/13 A2989 RMK A01 T03820130  RH  023%=      5-min Rain = 0
KLD1 202200Z 13010KT 38/12 A2989 RMK A01 T03780123  RH  023%=      5-min Rain = 0
KLD1 202205Z 15010G15KT 38/13 A2989 RMK A01 T03780127  RH  023%=      5-min Rain = 0
KLD1 202210Z 15008KT 38/13 A2989 RMK A01 T03830129  RH  023%=      5-min Rain = 0
KLD1 202215Z 17009G14KT 39/13 A2988 RMK A01 T03850127  RH  022%=      5-min Rain = 0
KLD1 202220Z 16009KT 38/12 A2988 RMK A01 T03830123  RH  022%=      5-min Rain = 0
KLD1 202225Z 15010KT 38/13 A2988 RMK A01 T03840130  RH  023%=      5-min Rain = 0
KLD1 202230Z 14011KT 38/13 A2988 RMK A01 T03830125  RH  022%=      5-min Rain = 0
KLD1 202235Z 15010KT 38/13 A2988 RMK A01 T03820129  RH  023%=      5-min Rain = 0
KLD1 202240Z 14011G17KT 38/13 A2988 RMK A01 T03810126  RH  023%=      5-min Rain = 0
KLD1 202245Z 14012KT 38/13 A2987 RMK A01 T03800127  RH  023%=      5-min Rain = 0
KLD1 202250Z 17009G16KT 38/12 A2987 RMK A01 T03820123  RH  022%=      5-min Rain = 0
KLD1 202255Z 15010G17KT 38/13 A2987 RMK A01 T03820125  RH  022%=      5-min Rain = 0
KLD1 202300Z 15012G18KT 38/13 A2987 RMK A01 T03800127  RH  023%=      5-min Rain = 0
KLD1 202305Z 14012G17KT 38/13 A2987 RMK A01 T03780126  RH  023%=      5-min Rain = 0
KLD1 202310Z 14011KT 38/13 A2987 RMK A01 T03790127  RH  023%=      5-min Rain = 0
KLD1 202315Z 14010G15KT 38/13 A2987 RMK A01 T03800133  RH  024%=      5-min Rain = 0
KLD1 202320Z 15012KT 38/13 A2987 RMK A01 T03780131  RH  024%=      5-min Rain = 0
KLD1 202325Z 15015G20KT 38/13 A2987 RMK A01 T03760131  RH  024%=      5-min Rain = 0
KLD1 202330Z 14013G18KT 37/13 A2987 RMK A01 T03740130  RH  024%=      5-min Rain = 0
KLD1 202335Z 15014G21KT 37/13 A2987 RMK A01 T03740129  RH  024%=      5-min Rain = 0
KLD1 202340Z 15015KT 37/13 A2987 RMK A01 T03720129  RH  024%=      5-min Rain = 0
KLD1 202345Z 14015KT 37/13 A2987 RMK A01 T03710131  RH  025%=      5-min Rain = 0
KLD1 202350Z 14015G20KT 37/13 A2986 RMK A01 T03700131  RH  025%=      5-min Rain = 0
KLD1 202355Z 14014KT 37/13 A2986 RMK A01 T03700131  RH  025%=      5-min Rain = 0
KLD1 210000Z 15015G21KT 37/13 A2986 RMK A01 T03700131  RH  025%=      5-min Rain = 0
KLD1 210005Z 15015G22KT 37/13 A2986 RMK A01 T03680133  RH  026%=      5-min Rain = 0
KLD1 210010Z 15013G20KT 37/13 A2986 RMK A01 T03670131  RH  025%=      5-min Rain = 0
KLD1 210015Z 14015G20KT 37/13 A2986 RMK A01 T03660134  RH  026%=      5-min Rain = 0
KLD1 210020Z 14015G20KT 37/13 A2986 RMK A01 T03650132  RH  026%=      5-min Rain = 0
KLD1 210025Z 15016G24KT 36/13 A2986 RMK A01 T03640133  RH  026%=      5-min Rain = 0
KLD1 210030Z 15016G23KT 36/13 A2986 RMK A01 T03620132  RH  026%=      5-min Rain = 0
KLD1 210035Z 15013G19KT 36/13 A2986 RMK A01 T03620134  RH  027%=      5-min Rain = 0
KLD1 210040Z 15014G20KT 36/13 A2986 RMK A01 T03610132  RH  027%=      5-min Rain = 0
KLD1 210045Z 15015KT 36/13 A2986 RMK A01 T03590132  RH  027%=      5-min Rain = 0
KLD1 210050Z 15015G20KT 36/13 A2986 RMK A01 T03560131  RH  027%=      5-min Rain = 0
KLD1 210055Z 15014G19KT 36/13 A2986 RMK A01 T03550132  RH  027%=      5-min Rain = 0
KLD1 210100Z 15015KT 35/13 A2986 RMK A01 T03540132  RH  028%=      5-min Rain = 0
KLD1 210105Z 15015G20KT 35/13 A2986 RMK A01 T03520131  RH  027%=      5-min Rain = 0
KLD1 210110Z 15013KT 35/13 A2987 RMK A01 T03510132  RH  028%=      5-min Rain = 0
KLD1 210115Z 15014G21KT 35/13 A2987 RMK A01 T03490131  RH  028%=      5-min Rain = 0
KLD1 210120Z 15013G18KT 35/13 A2987 RMK A01 T03480130  RH  028%=      5-min Rain = 0
KLD1 210125Z 15014G20KT 35/13 A2987 RMK A01 T03460129  RH  028%=      5-min Rain = 0
KLD1 210130Z 15013G18KT 35/13 A2987 RMK A01 T03450128  RH  028%=      5-min Rain = 0
KLD1 210135Z 15013KT 34/13 A2987 RMK A01 T03430128  RH  028%=      5-min Rain = 0
KLD1 210140Z 15012G17KT 34/13 A2987 RMK A01 T03410128  RH  029%=      5-min Rain = 0
KLD1 210145Z 15012G17KT 34/13 A2987 RMK A01 T03390127  RH  029%=      5-min Rain = 0
KLD1 210150Z 15012G17KT 34/13 A2988 RMK A01 T03370126  RH  029%=      5-min Rain = 0
KLD1 210155Z 15012KT 34/13 A2988 RMK A01 T03360125  RH  029%=      5-min Rain = 0
KLD1 210200Z 15012KT 34/12 A2988 RMK A01 T03350124  RH  029%=      5-min Rain = 0
KLD1 210205Z 15012KT 33/12 A2988 RMK A01 T03340124  RH  029%=      5-min Rain = 0
KLD1 210210Z 15012KT 33/12 A2988 RMK A01 T03320124  RH  029%=      5-min Rain = 0
KLD1 210215Z 15012KT 33/12 A2988 RMK A01 T03300124  RH  030%=      5-min Rain = 0
KLD1 210220Z 15012G17KT 33/12 A2988 RMK A01 T03290124  RH  030%=      5-min Rain = 0
KLD1 210225Z 15011KT 33/12 A2988 RMK A01 T03270124  RH  030%=      5-min Rain = 0
KLD1 210230Z 15012KT 33/12 A2988 RMK A01 T03260124  RH  030%=      5-min Rain = 0
KLD1 210235Z 15011KT 32/12 A2988 RMK A01 T03240124  RH  031%=      5-min Rain = 0
KLD1 210240Z 15011KT 32/12 A2988 RMK A01 T03230124  RH  031%=      5-min Rain = 0
KLD1 210245Z 15011KT 32/13 A2988 RMK A01 T03220125  RH  031%=      5-min Rain = 0
KLD1 210250Z 15011KT 32/13 A2989 RMK A01 T03210125  RH  031%=      5-min Rain = 0
KLD1 210255Z 15011KT 32/13 A2989 RMK A01 T03200125  RH  032%=      5-min Rain = 0
KLD1 210300Z 15011KT 32/13 A2989 RMK A01 T03190126  RH  032%=      5-min Rain = 0
KLD1 210305Z 15012KT 32/13 A2989 RMK A01 T03180126  RH  032%=      5-min Rain = 0
KLD1 210310Z 15011KT 32/13 A2989 RMK A01 T03180127  RH  032%=      5-min Rain = 0
KLD1 210315Z 16012G17KT 32/13 A2989 RMK A01 T03170127  RH  033%=      5-min Rain = 0
KLD1 210320Z 16012KT 32/13 A299 RMK A01 T03160128  RH  033%=      5-min Rain = 0
KLD1 210325Z 16012KT 32/13 A299 RMK A01 T03160129  RH  033%=      5-min Rain = 0
KLD1 210330Z 15011KT 31/13 A299 RMK A01 T03140130  RH  034%=      5-min Rain = 0
KLD1 210335Z 15010KT 31/13 A299 RMK A01 T03110130  RH  035%=      5-min Rain = 0
KLD1 210340Z 15010KT 31/13 A2991 RMK A01 T03090131  RH  035%=      5-min Rain = 0
KLD1 210345Z 15010KT 31/13 A2991 RMK A01 T03080132  RH  035%=      5-min Rain = 0
KLD1 210350Z 16010KT 31/13 A2991 RMK A01 T03060132  RH  036%=      5-min Rain = 0
KLD1 210355Z 16010KT 31/13 A2991 RMK A01 T03050133  RH  036%=      5-min Rain = 0
KLD1 210400Z 16010KT 30/13 A2992 RMK A01 T03040133  RH  037%=      5-min Rain = 0
KLD1 210405Z 16010KT 30/13 A2992 RMK A01 T03030134  RH  037%=      5-min Rain = 0
KLD1 210410Z 16010KT 30/13 A2992 RMK A01 T03010134  RH  037%=      5-min Rain = 0
KLD1 210415Z 16010KT 30/14 A2992 RMK A01 T03000135  RH  038%=      5-min Rain = 0
KLD1 210420Z 16011KT 30/14 A2993 RMK A01 T02990136  RH  038%=      5-min Rain = 0
KLD1 210425Z 16011KT 30/14 A2993 RMK A01 T02990135  RH  038%=      5-min Rain = 0
KLD1 210430Z 16011KT 30/14 A2993 RMK A01 T02980135  RH  038%=      5-min Rain = 0
KLD1 210435Z 17011KT 30/14 A2993 RMK A01 T02970135  RH  038%=      5-min Rain = 0
KLD1 210440Z 17011KT 30/13 A2993 RMK A01 T02970134  RH  038%=      5-min Rain = 0
KLD1 210445Z 17013KT 30/13 A2993 RMK A01 T02980134  RH  038%=      5-min Rain = 0
KLD1 210450Z 17013KT 30/13 A2993 RMK A01 T02990133  RH  038%=      5-min Rain = 0
KLD1 210455Z 17013KT 30/13 A2994 RMK A01 T02990133  RH  038%=      5-min Rain = 0

Page generated in 0.0107 seconds.